createdAt,value
2023-03-06T00:02:06.416Z,6.53
2023-03-06T00:04:32.957Z,7.43
2023-03-06T00:06:59.308Z,6.28
2023-03-06T00:09:25.682Z,9.18
2023-03-06T00:11:52.034Z,6.50
2023-03-06T00:14:18.376Z,6.57
2023-03-06T00:16:44.726Z,7.88
2023-03-06T00:19:11.648Z,6.32
2023-03-06T00:21:40.760Z,6.85
2023-03-06T00:24:07.310Z,8.75
2023-03-06T00:26:34.785Z,6.80
2023-03-06T00:29:01.239Z,5.65
2023-03-06T00:31:27.640Z,7.55
2023-03-06T00:33:54.074Z,6.05
2023-03-06T00:36:20.457Z,7.10
2023-03-06T00:38:46.816Z,7.93
2023-03-06T00:41:13.250Z,7.45
2023-03-06T00:43:40.008Z,11.05
2023-03-06T00:46:07.909Z,8.15
2023-03-06T00:48:34.779Z,7.28
2023-03-06T00:51:01.527Z,9.15
2023-03-06T00:53:27.973Z,7.93
2023-03-06T00:55:54.391Z,9.70
2023-03-06T00:58:20.743Z,8.93
2023-03-06T01:00:48.568Z,11.63
2023-03-06T01:03:16.165Z,13.30
2023-03-06T01:05:43.054Z,11.27
2023-03-06T01:08:09.422Z,12.73
2023-03-06T01:10:40.557Z,12.30
2023-03-06T01:13:07.020Z,12.25
2023-03-06T01:15:33.445Z,12.23
2023-03-06T01:18:00.097Z,12.88
2023-03-06T01:20:26.711Z,10.45
2023-03-06T01:22:55.341Z,13.35
2023-03-06T01:25:22.348Z,11.23
2023-03-06T01:27:50.882Z,11.35
2023-03-06T01:30:17.415Z,15.40
2023-03-06T01:32:43.949Z,10.57
2023-03-06T01:35:11.336Z,11.00
2023-03-06T01:37:38.892Z,11.70
2023-03-06T01:40:07.501Z,12.32
2023-03-06T01:42:34.124Z,14.40
2023-03-06T01:45:12.323Z,14.50
2023-03-06T01:47:38.742Z,13.38
2023-03-06T01:50:08.510Z,12.50
2023-03-06T01:52:46.053Z,16.80
2023-03-06T01:55:17.567Z,13.32
2023-03-06T01:57:46.777Z,13.70
2023-03-06T02:00:15.949Z,12.77
2023-03-06T02:02:46.748Z,14.93
2023-03-06T02:05:13.599Z,14.13
2023-03-06T02:07:42.301Z,14.55
2023-03-06T02:12:37.387Z,13.50
2023-03-06T02:17:30.697Z,14.35
2023-03-06T02:20:06.573Z,12.63
2023-03-06T02:23:00.911Z,15.52
2023-03-06T02:25:35.565Z,13.23
2023-03-06T02:28:03.480Z,13.50
2023-03-06T02:30:30.917Z,14.15
2023-03-06T02:32:58.104Z,14.32
2023-03-06T02:35:28.095Z,18.13
2023-03-06T02:37:57.485Z,14.32
2023-03-06T02:40:24.524Z,17.40
2023-03-06T02:42:56.186Z,15.50
2023-03-06T02:45:33.824Z,15.02
2023-03-06T02:48:00.293Z,13.55
2023-03-06T02:50:28.289Z,15.65
2023-03-06T02:52:54.945Z,16.42
2023-03-06T02:55:21.961Z,15.35
2023-03-06T02:57:48.394Z,13.30
2023-03-06T03:00:15.571Z,15.05
2023-03-06T03:02:42.793Z,16.13
2023-03-06T03:05:09.684Z,18.20
2023-03-06T03:07:40.857Z,15.15
2023-03-06T03:10:08.920Z,15.65
2023-03-06T03:12:35.317Z,16.30
2023-03-06T03:15:01.764Z,16.40
2023-03-06T03:17:28.395Z,16.50
2023-03-06T03:19:54.873Z,16.75
2023-03-06T03:22:22.089Z,17.60
2023-03-06T03:24:49.761Z,15.10
2023-03-06T03:27:16.221Z,15.82
2023-03-06T03:29:42.806Z,15.45
2023-03-06T03:32:09.796Z,17.02
2023-03-06T03:34:36.569Z,15.38
2023-03-06T03:37:03.349Z,13.02
2023-03-06T03:39:29.876Z,14.02
2023-03-06T03:41:56.625Z,14.55
2023-03-06T03:44:23.567Z,15.25
2023-03-06T03:46:50.090Z,14.73
2023-03-06T03:49:20.226Z,14.15
2023-03-06T03:51:47.560Z,14.10
2023-03-06T03:54:14.351Z,16.38
2023-03-06T03:56:45.022Z,14.82
2023-03-06T03:59:17.400Z,14.93
2023-03-06T04:01:55.923Z,15.98
2023-03-06T04:04:22.884Z,15.38
2023-03-06T04:06:49.251Z,17.73
2023-03-06T04:09:17.554Z,12.88
2023-03-06T04:11:44.414Z,16.02
2023-03-06T04:14:10.872Z,16.20
2023-03-06T04:16:37.350Z,14.95
2023-03-06T04:19:03.826Z,15.93
2023-03-06T04:21:30.926Z,15.98
2023-03-06T04:23:58.442Z,15.00
2023-03-06T04:26:24.850Z,16.52
2023-03-06T04:28:51.367Z,16.65
2023-03-06T04:31:18.237Z,16.52
2023-03-06T04:33:44.653Z,15.80
2023-03-06T04:36:25.242Z,16.55
2023-03-06T04:38:52.802Z,14.15
2023-03-06T04:41:19.208Z,16.50
2023-03-06T04:43:46.241Z,15.20
2023-03-06T04:46:12.748Z,15.43
2023-03-06T04:48:39.141Z,16.40
2023-03-06T04:51:05.891Z,14.77
2023-03-06T04:53:32.761Z,14.65
2023-03-06T04:55:59.461Z,14.80
2023-03-06T04:58:25.870Z,15.70
2023-03-06T05:00:52.308Z,15.32
2023-03-06T05:03:18.709Z,15.40
2023-03-06T05:05:45.082Z,15.65
2023-03-06T05:08:16.320Z,16.30
2023-03-06T05:10:43.393Z,14.82
2023-03-06T05:13:10.151Z,15.95
2023-03-06T05:15:36.978Z,13.23
2023-03-06T05:18:03.448Z,15.73
2023-03-06T05:20:29.924Z,16.48
2023-03-06T05:22:56.325Z,17.00
2023-03-06T05:25:22.722Z,19.48
2023-03-06T05:27:49.087Z,16.83
2023-03-06T05:30:15.637Z,19.70
2023-03-06T05:32:42.593Z,15.40
2023-03-06T05:35:16.987Z,15.45
2023-03-06T05:37:43.402Z,17.70
2023-03-06T05:40:10.707Z,15.35
2023-03-06T05:42:37.125Z,16.67
2023-03-06T05:45:04.427Z,15.32
2023-03-06T05:47:31.744Z,16.80
2023-03-06T05:49:58.292Z,17.15
2023-03-06T05:52:24.727Z,18.38
2023-03-06T05:54:53.137Z,15.48
2023-03-06T05:57:23.819Z,16.23
2023-03-06T05:59:50.702Z,16.52
2023-03-06T06:02:18.302Z,16.02
2023-03-06T06:04:44.798Z,16.10
2023-03-06T06:07:14.404Z,17.50
2023-03-06T06:09:40.877Z,18.60
2023-03-06T06:12:07.650Z,15.65
2023-03-06T06:14:34.751Z,16.90
2023-03-06T06:17:01.770Z,16.00
2023-03-06T06:19:29.876Z,17.98
2023-03-06T06:21:56.562Z,16.55
2023-03-06T06:24:25.187Z,17.25
2023-03-06T06:31:46.272Z,18.35
2023-03-06T06:34:13.109Z,18.77
2023-03-06T06:36:40.198Z,19.33
2023-03-06T06:39:08.246Z,19.27
2023-03-06T06:41:54.890Z,21.02
2023-03-06T06:44:22.041Z,23.67
2023-03-06T06:49:36.671Z,20.80
2023-03-06T06:52:04.157Z,19.50
2023-03-06T06:54:30.642Z,19.67
2023-03-06T06:56:56.990Z,18.20
2023-03-06T06:59:23.741Z,20.83
2023-03-06T07:01:51.692Z,19.00
2023-03-06T07:04:19.124Z,20.35
2023-03-06T07:06:46.294Z,20.55
2023-03-06T07:09:14.008Z,21.15
2023-03-06T07:11:41.197Z,20.27
2023-03-06T07:14:07.929Z,19.90
2023-03-06T07:16:34.315Z,19.80
2023-03-06T07:19:00.700Z,20.10
2023-03-06T07:21:27.065Z,20.42
2023-03-06T07:23:54.222Z,22.05
2023-03-06T07:26:20.646Z,19.83
2023-03-06T07:28:52.692Z,21.45
2023-03-06T07:31:22.051Z,21.85
2023-03-06T07:33:52.547Z,21.92
2023-03-06T07:36:19.380Z,19.60
2023-03-06T07:38:45.735Z,21.20
2023-03-06T07:41:13.575Z,21.08
2023-03-06T07:43:41.101Z,19.88
2023-03-06T07:46:08.295Z,19.25
2023-03-06T07:48:35.914Z,19.73
2023-03-06T07:51:05.378Z,20.88
2023-03-06T07:53:32.301Z,21.13
2023-03-06T07:55:58.812Z,20.35
2023-03-06T07:58:25.697Z,19.73
2023-03-06T08:00:52.258Z,19.00
2023-03-06T08:03:18.708Z,18.17
2023-03-06T08:05:45.511Z,18.83
2023-03-06T08:08:12.580Z,18.27
2023-03-06T08:10:39.033Z,19.40
2023-03-06T08:13:05.453Z,18.85
2023-03-06T08:15:31.920Z,22.13
2023-03-06T08:17:58.349Z,19.98
2023-03-06T08:20:24.775Z,18.45
2023-03-06T08:22:51.128Z,23.00
2023-03-06T08:25:17.538Z,25.25
2023-03-06T08:27:44.050Z,22.48
2023-03-06T08:30:10.897Z,20.70
2023-03-06T08:32:38.109Z,22.23
2023-03-06T08:35:05.470Z,25.15
2023-03-06T08:37:31.952Z,21.45
2023-03-06T08:39:58.654Z,29.52
2023-03-06T08:42:25.105Z,24.80
2023-03-06T08:44:52.498Z,29.25
2023-03-06T08:47:18.862Z,26.80
2023-03-06T08:49:45.354Z,25.65
2023-03-06T08:52:11.926Z,28.73
2023-03-06T08:54:39.079Z,23.65
2023-03-06T08:57:06.676Z,27.13
2023-03-06T08:59:33.166Z,25.77
2023-03-06T09:01:59.722Z,27.63
2023-03-06T09:04:26.142Z,28.33
2023-03-06T09:06:54.501Z,28.60
2023-03-06T09:09:21.854Z,31.70
2023-03-06T09:11:48.398Z,29.10
2023-03-06T09:14:14.785Z,33.10
2023-03-06T09:16:41.299Z,30.52
2023-03-06T09:19:07.690Z,28.95
2023-03-06T09:21:34.118Z,32.78
2023-03-06T09:24:00.624Z,33.00
2023-03-06T09:26:39.536Z,26.42
2023-03-06T09:29:12.422Z,27.80
2023-03-06T09:31:38.828Z,25.10
2023-03-06T09:34:05.267Z,25.23
2023-03-06T09:36:33.264Z,28.17
2023-03-06T09:39:02.220Z,27.80
2023-03-06T09:41:33.957Z,27.52
2023-03-06T09:44:22.615Z,28.25
2023-03-06T09:47:10.849Z,28.83
2023-03-06T09:49:55.462Z,28.50
2023-03-06T09:52:30.773Z,27.52
2023-03-06T09:55:02.400Z,28.60
2023-03-06T09:57:35.967Z,26.38
2023-03-06T10:00:14.463Z,25.90
2023-03-06T10:02:45.864Z,26.90
2023-03-06T10:05:38.772Z,22.60
2023-03-06T10:08:30.952Z,24.40
2023-03-06T10:11:04.046Z,22.42
2023-03-06T10:13:47.853Z,21.80
2023-03-06T10:16:32.017Z,22.73
2023-03-06T10:19:04.567Z,21.05
2023-03-06T10:21:43.551Z,22.15
2023-03-06T10:24:23.003Z,20.13
2023-03-06T10:26:56.898Z,19.83
2023-03-06T10:29:29.259Z,17.67
2023-03-06T10:32:04.367Z,19.75
2023-03-06T10:37:11.570Z,18.85
2023-03-06T10:39:39.336Z,16.42
2023-03-06T10:42:05.893Z,16.88
2023-03-06T10:44:32.310Z,17.80
2023-03-06T10:46:58.786Z,15.05
2023-03-06T10:49:29.985Z,15.15
2023-03-06T10:52:01.292Z,17.35
2023-03-06T10:54:33.279Z,16.30
2023-03-06T10:57:30.397Z,15.73
2023-03-06T10:59:59.846Z,16.05
2023-03-06T11:02:27.878Z,15.63
2023-03-06T11:04:56.047Z,17.63
2023-03-06T11:07:26.071Z,15.00
2023-03-06T11:09:58.259Z,16.75
2023-03-06T11:12:28.876Z,17.52
2023-03-06T11:15:14.230Z,16.65
2023-03-06T11:18:01.218Z,17.60
2023-03-06T11:20:51.004Z,15.38
2023-03-06T11:23:35.189Z,15.48
2023-03-06T11:26:23.457Z,14.93
2023-03-06T11:28:54.780Z,13.13
2023-03-06T11:31:28.650Z,12.65
2023-03-06T11:34:04.759Z,13.30
2023-03-06T11:36:42.828Z,11.75
2023-03-06T11:39:22.713Z,11.93
2023-03-06T11:42:15.663Z,15.07
2023-03-06T11:44:51.678Z,18.20
2023-03-06T11:47:31.968Z,15.95
2023-03-06T11:50:01.293Z,17.35
2023-03-06T11:52:45.222Z,14.52
2023-03-06T11:55:32.522Z,16.42
2023-03-06T11:58:16.631Z,20.15
2023-03-06T12:01:13.545Z,16.30
2023-03-06T12:04:03.522Z,16.90
2023-03-06T12:06:41.453Z,15.68
2023-03-06T12:09:13.762Z,14.80
2023-03-06T12:11:54.145Z,15.98
2023-03-06T12:14:44.371Z,17.00
2023-03-06T12:17:36.888Z,14.77
2023-03-06T12:20:21.949Z,13.63
2023-03-06T12:23:14.556Z,14.65
2023-03-06T12:25:45.051Z,14.55
2023-03-06T12:28:27.945Z,15.23
2023-03-06T12:31:19.511Z,12.90
2023-03-06T12:33:56.249Z,12.85
2023-03-06T12:36:53.504Z,11.35
2023-03-06T12:39:43.094Z,10.30
2023-03-06T12:42:40.222Z,10.07
2023-03-06T12:45:26.677Z,9.18
2023-03-06T12:47:58.478Z,8.73
2023-03-06T12:50:28.673Z,11.57
2023-03-06T12:52:58.737Z,8.82
2023-03-06T12:55:26.216Z,10.02
2023-03-06T12:57:52.769Z,7.05
2023-03-06T13:00:34.234Z,8.02
2023-03-06T13:06:02.494Z,10.00
2023-03-06T13:09:06.450Z,14.05
2023-03-06T13:11:53.425Z,12.80
2023-03-06T13:14:54.142Z,13.07
2023-03-06T13:17:26.127Z,12.30
2023-03-06T13:20:14.501Z,14.75
2023-03-06T13:22:43.044Z,13.88
2023-03-06T13:27:54.482Z,15.00
2023-03-06T13:30:34.749Z,13.70
2023-03-06T13:33:01.182Z,14.77
2023-03-06T13:35:33.129Z,12.82
2023-03-06T13:38:00.983Z,14.18
2023-03-06T13:40:32.721Z,14.38
2023-03-06T13:43:03.465Z,13.00
2023-03-06T13:45:37.666Z,12.43
2023-03-06T13:50:52.584Z,15.52
2023-03-06T13:53:37.000Z,14.40
2023-03-06T13:56:33.117Z,14.75
2023-03-06T13:59:32.806Z,13.55
2023-03-06T14:02:23.902Z,11.98
2023-03-06T14:04:58.713Z,15.05
2023-03-06T14:07:26.572Z,16.90
2023-03-06T14:10:08.144Z,12.52
2023-03-06T14:12:38.205Z,15.80
2023-03-06T14:15:16.213Z,15.30
2023-03-06T14:17:54.040Z,13.32
2023-03-06T14:20:21.622Z,14.50
2023-03-06T14:22:47.977Z,13.45
2023-03-06T14:25:27.902Z,14.00
2023-03-06T14:27:58.213Z,18.20
2023-03-06T14:30:26.902Z,12.45
2023-03-06T14:32:54.994Z,11.20
2023-03-06T14:35:32.207Z,11.77
2023-03-06T14:38:04.035Z,14.15
2023-03-06T14:40:40.673Z,12.65
2023-03-06T14:43:11.911Z,12.85
2023-03-06T14:45:48.839Z,12.07
2023-03-06T14:48:15.364Z,12.25
2023-03-06T14:50:47.061Z,12.63
2023-03-06T14:53:21.576Z,14.73
2023-03-06T14:55:54.262Z,13.63
2023-03-06T14:58:31.367Z,12.27
2023-03-06T15:01:02.385Z,18.38
2023-03-06T15:03:50.697Z,12.85
2023-03-06T15:06:21.185Z,14.07
2023-03-06T15:08:54.213Z,10.82
2023-03-06T15:11:20.637Z,12.30
2023-03-06T15:14:00.588Z,13.00
2023-03-06T15:16:30.358Z,10.73
2023-03-06T15:18:59.777Z,10.35
2023-03-06T15:21:28.518Z,13.68
2023-03-06T15:23:56.981Z,12.88
2023-03-06T15:26:36.592Z,11.10
2023-03-06T15:29:20.796Z,10.43
2023-03-06T15:31:47.354Z,11.65
2023-03-06T15:34:13.657Z,14.82
2023-03-06T15:36:46.027Z,14.23
2023-03-06T15:39:32.767Z,12.93
2023-03-06T15:42:19.054Z,15.40
2023-03-06T15:44:54.598Z,16.15
2023-03-06T15:47:22.515Z,14.27
2023-03-06T15:49:51.880Z,13.88
2023-03-06T15:52:19.997Z,17.55
2023-03-06T15:54:46.467Z,16.10
2023-03-06T15:57:25.287Z,19.20
2023-03-06T15:59:52.447Z,17.08
2023-03-06T16:02:23.435Z,17.75
2023-03-06T16:04:50.350Z,18.60
2023-03-06T16:07:17.031Z,19.10
2023-03-06T16:09:43.854Z,21.80
2023-03-06T16:12:21.399Z,19.85
2023-03-06T16:14:48.713Z,19.92
2023-03-06T16:17:15.753Z,18.13
2023-03-06T16:19:42.910Z,17.95
2023-03-06T16:22:09.513Z,15.23
2023-03-06T16:24:37.084Z,17.42
2023-03-06T16:27:04.254Z,19.08
2023-03-06T16:29:30.967Z,17.83
2023-03-06T16:31:58.872Z,15.43
2023-03-06T16:34:25.443Z,16.83
2023-03-06T16:36:52.277Z,16.88
2023-03-06T16:39:21.574Z,14.93
2023-03-06T16:41:49.258Z,15.23
2023-03-06T16:44:16.255Z,14.50
2023-03-06T16:46:47.643Z,15.30
2023-03-06T16:49:23.676Z,13.82
2023-03-06T16:51:51.177Z,15.63
2023-03-06T16:54:18.069Z,18.90
2023-03-06T16:56:44.712Z,16.70
2023-03-06T16:59:12.053Z,15.38
2023-03-06T17:01:42.404Z,14.27
2023-03-06T17:04:08.866Z,15.32
2023-03-06T17:06:35.365Z,15.10
2023-03-06T17:09:01.797Z,14.80
2023-03-06T17:11:28.311Z,13.93
2023-03-06T17:13:55.209Z,16.67
2023-03-06T17:16:21.900Z,14.75
2023-03-06T17:18:49.408Z,15.40
2023-03-06T17:21:15.931Z,17.63
2023-03-06T17:23:43.047Z,15.88
2023-03-06T17:26:12.708Z,16.20
2023-03-06T17:28:39.897Z,17.75
2023-03-06T17:31:15.341Z,18.52
2023-03-06T17:33:41.942Z,16.65
2023-03-06T17:36:09.408Z,17.70
2023-03-06T17:38:36.244Z,16.23
2023-03-06T17:41:07.583Z,19.08
2023-03-06T17:43:33.986Z,16.70
2023-03-06T17:46:04.690Z,17.33
2023-03-06T17:48:31.294Z,17.13
2023-03-06T17:50:57.905Z,16.85
2023-03-06T17:53:24.457Z,17.27
2023-03-06T17:55:51.050Z,20.48
2023-03-06T17:58:17.510Z,20.92
2023-03-06T18:00:44.038Z,20.08
2023-03-06T18:03:10.397Z,17.02
2023-03-06T18:05:37.635Z,17.92
2023-03-06T18:08:04.770Z,19.35
2023-03-06T18:10:31.270Z,20.35
2023-03-06T18:12:57.598Z,20.58
2023-03-06T18:15:23.970Z,20.98
2023-03-06T18:17:50.400Z,19.02
2023-03-06T18:20:17.315Z,18.60
2023-03-06T18:22:43.789Z,19.75
2023-03-06T18:25:10.290Z,22.35
2023-03-06T18:27:37.133Z,20.02
2023-03-06T18:30:04.230Z,21.92
2023-03-06T18:32:30.803Z,20.23
2023-03-06T18:34:57.270Z,24.40
2023-03-06T18:37:23.734Z,19.50
2023-03-06T18:39:50.168Z,18.42
2023-03-06T18:42:16.573Z,19.42
2023-03-06T18:44:43.930Z,19.95
2023-03-06T18:47:10.289Z,21.90
2023-03-06T18:49:38.497Z,20.38
2023-03-06T18:52:06.293Z,22.73
2023-03-06T18:54:32.685Z,18.77
2023-03-06T18:56:59.127Z,19.52
2023-03-06T18:59:25.912Z,19.17
2023-03-06T19:01:57.329Z,18.10
2023-03-06T19:04:25.761Z,21.65
2023-03-06T19:06:52.529Z,22.60
2023-03-06T19:09:19.146Z,20.40
2023-03-06T19:11:46.813Z,20.23
2023-03-06T19:14:16.750Z,19.30
2023-03-06T19:16:43.393Z,20.08
2023-03-06T19:19:09.938Z,20.00
2023-03-06T19:21:36.438Z,19.88
2023-03-06T19:24:03.115Z,22.92
2023-03-06T19:26:29.539Z,18.77
2023-03-06T19:28:55.931Z,22.55
2023-03-06T19:31:25.621Z,21.40
2023-03-06T19:33:53.838Z,24.13
2023-03-06T19:36:23.562Z,22.33
2023-03-06T19:38:56.662Z,20.52
2023-03-06T19:41:23.489Z,22.50
2023-03-06T19:43:52.867Z,19.77
2023-03-06T19:46:20.914Z,20.00
2023-03-06T19:48:47.651Z,18.98
2023-03-06T19:51:14.667Z,21.83
2023-03-06T19:53:41.213Z,18.80
2023-03-06T19:56:11.190Z,18.95
2023-03-06T19:58:38.199Z,20.35
2023-03-06T20:01:13.102Z,18.55
2023-03-06T20:03:40.744Z,18.10
2023-03-06T20:06:11.753Z,22.33
2023-03-06T20:08:38.180Z,17.83
2023-03-06T20:11:04.851Z,18.05
2023-03-06T20:13:31.561Z,17.85
2023-03-06T20:16:02.561Z,17.92
2023-03-06T20:18:28.996Z,18.05
2023-03-06T20:21:02.309Z,16.38
2023-03-06T20:23:29.543Z,19.25
2023-03-06T20:25:55.973Z,17.77
2023-03-06T20:28:22.743Z,19.17
2023-03-06T20:30:49.206Z,21.08
2023-03-06T20:33:16.653Z,20.25
2023-03-06T20:35:44.173Z,18.73
2023-03-06T20:38:11.237Z,20.85
2023-03-06T20:40:38.861Z,20.60
2023-03-06T20:43:05.682Z,23.40
2023-03-06T20:45:32.545Z,18.05
2023-03-06T20:47:58.918Z,22.20
2023-03-06T20:50:27.992Z,20.27
2023-03-06T20:52:56.395Z,14.65
2023-03-06T20:55:22.916Z,24.27
2023-03-06T20:57:50.999Z,22.58
2023-03-06T21:00:18.856Z,22.98
2023-03-06T21:02:45.254Z,24.63
2023-03-06T21:05:11.678Z,23.50
2023-03-06T21:07:39.534Z,22.27
2023-03-06T21:10:06.647Z,22.10
2023-03-06T21:12:33.045Z,21.15
2023-03-06T21:14:59.418Z,25.70
2023-03-06T21:17:26.940Z,21.58
2023-03-06T21:19:53.602Z,23.13
2023-03-06T21:22:20.103Z,21.45
2023-03-06T21:24:46.484Z,18.55
2023-03-06T21:27:12.836Z,24.02
2023-03-06T21:29:39.251Z,24.10
2023-03-06T21:32:05.952Z,22.55
2023-03-06T21:34:32.607Z,25.73
2023-03-06T21:36:58.988Z,22.90
2023-03-06T21:39:25.341Z,24.58
2023-03-06T21:41:51.683Z,27.80
2023-03-06T21:44:18.041Z,21.77
2023-03-06T21:46:44.421Z,30.73
2023-03-06T21:49:10.839Z,20.83
2023-03-06T21:51:37.301Z,24.40
2023-03-06T21:54:05.735Z,23.17
2023-03-06T21:56:33.370Z,24.65
2023-03-06T21:58:59.880Z,22.98
2023-03-06T22:01:28.566Z,23.50
2023-03-06T22:06:25.031Z,21.92
2023-03-06T22:08:52.099Z,23.70
2023-03-06T22:11:20.405Z,27.15
2023-03-06T22:13:50.482Z,23.50
2023-03-06T22:16:17.600Z,21.77
2023-03-06T22:18:45.936Z,26.73
2023-03-06T22:21:14.770Z,25.67
2023-03-06T22:23:41.788Z,23.70
2023-03-06T22:26:12.472Z,26.13
2023-03-06T22:28:39.754Z,24.13
2023-03-06T22:31:13.910Z,26.42
2023-03-06T22:33:41.048Z,23.63
2023-03-06T22:36:10.530Z,25.20
2023-03-06T22:38:39.869Z,26.13
2023-03-06T22:41:07.581Z,24.27
2023-03-06T22:43:34.869Z,22.58
2023-03-06T22:46:06.906Z,23.40
2023-03-06T22:48:33.974Z,26.05
2023-03-06T22:51:09.531Z,24.98
2023-03-06T22:53:36.657Z,24.83
2023-03-06T22:56:05.254Z,22.38
2023-03-06T22:58:36.685Z,21.50
2023-03-06T23:01:23.228Z,21.80
2023-03-06T23:03:58.402Z,20.33
2023-03-06T23:06:27.566Z,20.35
2023-03-06T23:09:00.285Z,21.35
2023-03-06T23:11:28.732Z,20.20
2023-03-06T23:14:15.027Z,21.73
2023-03-06T23:17:00.123Z,18.70
2023-03-06T23:19:45.323Z,16.38
2023-03-06T23:22:30.492Z,16.85
2023-03-06T23:25:15.793Z,15.30
2023-03-06T23:27:42.182Z,14.30
2023-03-06T23:30:09.301Z,17.73
2023-03-06T23:32:35.739Z,15.27
2023-03-06T23:35:02.142Z,14.98
2023-03-06T23:37:28.531Z,15.48
2023-03-06T23:39:55.116Z,13.27
2023-03-06T23:42:22.486Z,12.02
2023-03-06T23:44:48.927Z,14.15
2023-03-06T23:47:17.074Z,12.38
2023-03-06T23:49:43.481Z,12.00
2023-03-06T23:52:09.835Z,11.43
2023-03-06T23:54:36.335Z,15.00
2023-03-06T23:57:02.805Z,13.45
2023-03-06T23:59:29.269Z,9.20
